Terminal Aerodrome Forecast
Issued by NWS

Home | Current Version | Previous Version | Text Only | Print | Product List | Glossary On
Versions: 1 2 3 4 5 6 7 8 9 10 11 12 13 14 15
000
FTUS46 KSTO 090008 AAA
TAFRDD
TAF AMD
KRDD 090008Z 0900/0924 VRB04KT 3SM -DZ BR OVC005
      TEMPO 0902/0906 1SM -RA BR OVC001
     FM090600 VRB03KT 1/4SM -DZ FG OVC001
     FM092000 18005KT 2SM -RA BR OVC007=

USA.gov is the U.S. government's official web portal to all federal, state and local government web resources and services.